Terminal Aerodrome Forecast
Issued by NWS Buffalo, NY

Home | Current Version | Previous Version | Text Only | Print | Product List | Glossary On
Versions: 1 2 3 4 5 6 7 8 9 10 11 12 13 14 15 16 17 18 19 20 21 22 23 24
192
FTUS41 KBUF 170215 AAA
TAFART
TAF AMD
KART 170215Z 1702/1724 VRB03KT P6SM SKC
     FM170900 VRB05KT P6SM SCT250
     FM171800 VRB05KT P6SM BKN200=

USA.gov is the U.S. government's official web portal to all federal, state and local government web resources and services.